Time;durP1;ratioP1;P1;durP2;ratioP2;P2;SDS_P1;SDS_P2;PMS_P1;PMS_P2;Temp;Humidity;BMP_temperature;BMP_pressure;BME280_temperature;BME280_humidity;BME280_pressure;Samples;Min_cycle;Max_cycle;Signal;HPM_P1;HPM_P2
2022/08/24 00:02:10;;;;;;;60.27;4.83;;;;;;;;;;5073081;28;20880;-68
2022/08/24 00:04:38;;;;;;;59.77;4.60;;;;;;;;;;5073503;28;20547;-67
2022/08/24 00:07:07;;;;;;;59.30;4.17;;;;;;;;;;5073142;28;20476;-67
2022/08/24 00:09:35;;;;;;;60.80;4.10;;;;;;;;;;5072947;28;20452;-67
2022/08/24 00:12:02;;;;;;;59.87;4.73;;;;;;;;;;5073086;28;20490;-67
2022/08/24 00:14:29;;;;;;;59.87;4.20;;;;;;;;;;5072886;28;20451;-67
2022/08/24 00:16:57;;;;;;;60.40;4.80;;;;;;;;;;5072726;28;21004;-67
2022/08/24 00:19:24;;;;;;;59.90;4.23;;;;;;;;;;5072825;28;20447;-68
2022/08/24 00:21:53;;;;;;;60.20;5.03;;;;;;;;;;5072879;28;20465;-68
2022/08/24 00:24:20;;;;;;;61.83;4.97;;;;;;;;;;5072871;28;21026;-68
2022/08/24 00:26:47;;;;;;;59.80;4.63;;;;;;;;;;5072753;28;20486;-67
2022/08/24 00:29:15;;;;;;;59.97;4.93;;;;;;;;;;5072344;28;20864;-67
2022/08/24 00:31:42;;;;;;;60.87;4.43;;;;;;;;;;5072381;28;20467;-67
2022/08/24 00:34:09;;;;;;;60.13;4.80;;;;;;;;;;5072800;28;20449;-67
2022/08/24 00:36:37;;;;;;;59.50;4.27;;;;;;;;;;5072463;28;21011;-67
2022/08/24 00:39:06;;;;;;;61.90;4.80;;;;;;;;;;5072314;28;20825;-67
2022/08/24 00:41:34;;;;;;;61.17;5.00;;;;;;;;;;5072312;28;20861;-68
2022/08/24 00:44:03;;;;;;;59.63;4.30;;;;;;;;;;5072600;28;20451;-67
2022/08/24 00:46:32;;;;;;;62.07;5.23;;;;;;;;;;5072244;28;20543;-67
2022/08/24 00:49:02;;;;;;;59.70;4.33;;;;;;;;;;5072237;28;20443;-68
2022/08/24 00:51:31;;;;;;;60.13;4.60;;;;;;;;;;5072489;28;20894;-68
2022/08/24 00:54:00;;;;;;;59.80;4.17;;;;;;;;;;5072270;28;20451;-67
2022/08/24 00:56:30;;;;;;;61.20;4.90;;;;;;;;;;5072406;28;20881;-67
2022/08/24 00:58:58;;;;;;;60.43;4.87;;;;;;;;;;5072404;28;20816;-68
2022/08/24 01:01:26;;;;;;;61.73;5.30;;;;;;;;;;5072028;28;20991;-68
2022/08/24 01:03:53;;;;;;;62.07;4.67;;;;;;;;;;5071830;28;20450;-68
2022/08/24 01:06:20;;;;;;;61.00;5.07;;;;;;;;;;5072147;28;20443;-68
2022/08/24 01:08:47;;;;;;;60.30;4.60;;;;;;;;;;5071530;28;20447;-68
2022/08/24 01:11:15;;;;;;;60.67;4.93;;;;;;;;;;5072120;28;20454;-67
2022/08/24 01:13:45;;;;;;;60.37;4.63;;;;;;;;;;5072134;28;20454;-67
2022/08/24 01:16:13;;;;;;;61.80;5.43;;;;;;;;;;5071871;28;20439;-68
2022/08/24 01:18:49;;;;;;;60.37;4.80;;;;;;;;;;5071523;28;20483;-67
2022/08/24 01:21:18;;;;;;;60.70;4.70;;;;;;;;;;5071815;28;20474;-68
2022/08/24 01:23:47;;;;;;;60.57;4.77;;;;;;;;;;5072122;28;20443;-68
2022/08/24 01:26:17;;;;;;;59.47;4.60;;;;;;;;;;5071844;28;20969;-67
2022/08/24 01:28:45;;;;;;;59.37;4.50;;;;;;;;;;5071587;28;20448;-67
2022/08/24 01:31:12;;;;;;;61.50;5.00;;;;;;;;;;5071743;28;20447;-68
2022/08/24 01:33:40;;;;;;;59.80;4.40;;;;;;;;;;5071618;28;20476;-67
2022/08/24 01:36:12;;;;;;;60.67;5.10;;;;;;;;;;5071958;28;20443;-68
2022/08/24 01:38:40;;;;;;;59.57;4.17;;;;;;;;;;5071480;28;21032;-67
2022/08/24 01:41:08;;;;;;;60.53;4.53;;;;;;;;;;5071770;28;20828;-67
2022/08/24 01:43:36;;;;;;;60.00;4.97;;;;;;;;;;5070208;28;20493;-68
2022/08/24 01:46:03;;;;;;;60.17;5.40;;;;;;;;;;5071928;28;20452;-68
2022/08/24 01:48:30;;;;;;;61.63;4.70;;;;;;;;;;5071642;28;20450;-67
2022/08/24 01:50:57;;;;;;;62.17;4.90;;;;;;;;;;5071541;28;20442;-68
2022/08/24 01:53:25;;;;;;;60.47;4.93;;;;;;;;;;5071539;28;20467;-67
2022/08/24 01:55:52;;;;;;;60.13;4.97;;;;;;;;;;5071421;28;20456;-67
2022/08/24 01:58:20;;;;;;;60.10;4.50;;;;;;;;;;5071298;28;20479;-67
2022/08/24 02:00:48;;;;;;;60.37;5.27;;;;;;;;;;5071671;28;20447;-67
2022/08/24 02:03:15;;;;;;;60.37;5.07;;;;;;;;;;5071479;28;20469;-68
2022/08/24 02:05:42;;;;;;;62.80;5.53;;;;;;;;;;5071577;28;20453;-67
2022/08/24 02:08:09;;;;;;;61.57;6.03;;;;;;;;;;5071314;28;20443;-67
2022/08/24 02:10:36;;;;;;;62.43;5.50;;;;;;;;;;5071529;28;20451;-67
2022/08/24 02:13:04;;;;;;;60.77;5.53;;;;;;;;;;5071445;28;20467;-66
2022/08/24 02:15:38;;;;;;;61.63;4.70;;;;;;;;;;5072954;28;20498;-67
2022/08/24 02:18:06;;;;;;;61.50;5.10;;;;;;;;;;5075139;28;20486;-68
2022/08/24 02:20:33;;;;;;;60.20;4.87;;;;;;;;;;5074909;28;20447;-67
2022/08/24 02:23:00;;;;;;;60.23;4.83;;;;;;;;;;5075044;28;20834;-67
2022/08/24 02:25:29;;;;;;;60.80;4.60;;;;;;;;;;5075050;28;20443;-67
2022/08/24 02:27:56;;;;;;;62.70;5.20;;;;;;;;;;5074968;28;20554;-67
2022/08/24 02:30:24;;;;;;;61.13;5.57;;;;;;;;;;5074738;28;20943;-68
2022/08/24 02:32:52;;;;;;;60.90;4.63;;;;;;;;;;5074842;28;20483;-68
2022/08/24 02:35:20;;;;;;;60.90;4.70;;;;;;;;;;5074863;28;20478;-68
2022/08/24 02:37:47;;;;;;;60.00;5.00;;;;;;;;;;5075052;28;20490;-68
2022/08/24 02:40:14;;;;;;;60.07;4.53;;;;;;;;;;5074761;28;20470;-68
2022/08/24 02:42:42;;;;;;;60.27;4.90;;;;;;;;;;5074782;28;20561;-68
2022/08/24 02:45:10;;;;;;;60.90;5.07;;;;;;;;;;5074798;28;20451;-68
2022/08/24 02:47:37;;;;;;;60.23;4.77;;;;;;;;;;5074684;28;20447;-67
2022/08/24 02:50:07;;;;;;;61.00;5.13;;;;;;;;;;5074318;28;20443;-68
2022/08/24 02:52:35;;;;;;;61.87;5.70;;;;;;;;;;5074763;28;20471;-68
2022/08/24 02:55:02;;;;;;;60.77;4.57;;;;;;;;;;5074958;28;20444;-67
2022/08/24 02:57:29;;;;;;;59.77;4.70;;;;;;;;;;5074567;28;20485;-67
2022/08/24 02:59:56;;;;;;;61.13;4.80;;;;;;;;;;5074298;28;20456;-67
2022/08/24 03:02:24;;;;;;;60.37;4.20;;;;;;;;;;5074321;28;20464;-68
2022/08/24 03:04:51;;;;;;;60.00;4.80;;;;;;;;;;5074652;28;20467;-68
2022/08/24 03:07:19;;;;;;;60.37;4.87;;;;;;;;;;5074415;28;20454;-68
2022/08/24 03:09:47;;;;;;;60.27;4.87;;;;;;;;;;5074127;28;20455;-68
2022/08/24 03:12:14;;;;;;;61.00;5.90;;;;;;;;;;5074215;28;20525;-68
2022/08/24 03:14:41;;;;;;;60.10;5.53;;;;;;;;;;5074264;28;20451;-68
2022/08/24 03:17:08;;;;;;;60.40;5.50;;;;;;;;;;5074118;28;20455;-67
2022/08/24 03:19:36;;;;;;;60.20;4.80;;;;;;;;;;5074121;28;20497;-67
2022/08/24 03:22:03;;;;;;;60.27;5.00;;;;;;;;;;5074010;28;20543;-68
2022/08/24 03:24:31;;;;;;;60.63;4.90;;;;;;;;;;5074268;28;20442;-68
2022/08/24 03:26:59;;;;;;;60.43;5.13;;;;;;;;;;5073750;28;20477;-68
2022/08/24 03:29:26;;;;;;;60.13;4.60;;;;;;;;;;5073650;28;20788;-67
2022/08/24 03:31:55;;;;;;;60.40;4.53;;;;;;;;;;5073684;28;21036;-67
2022/08/24 03:34:23;;;;;;;66.73;5.00;;;;;;;;;;5074169;28;20458;-67
2022/08/24 03:36:50;;;;;;;60.70;5.30;;;;;;;;;;5074034;28;20454;-67
2022/08/24 03:39:17;;;;;;;62.13;5.07;;;;;;;;;;5073487;28;20498;-67
2022/08/24 03:41:46;;;;;;;63.23;5.47;;;;;;;;;;5073750;28;20490;-68
2022/08/24 03:44:13;;;;;;;61.50;6.00;;;;;;;;;;5073478;28;20455;-67
2022/08/24 03:46:40;;;;;;;60.50;4.73;;;;;;;;;;5073853;28;20446;-67
2022/08/24 03:49:09;;;;;;;61.53;5.20;;;;;;;;;;5073365;28;20447;-67
2022/08/24 03:51:37;;;;;;;61.00;4.97;;;;;;;;;;5073493;28;20474;-69
2022/08/24 03:54:05;;;;;;;62.20;5.33;;;;;;;;;;5073502;28;20452;-69
2022/08/24 03:56:32;;;;;;;59.87;4.73;;;;;;;;;;5073855;28;20447;-67
2022/08/24 03:59:00;;;;;;;60.27;4.60;;;;;;;;;;5073210;28;20482;-68
2022/08/24 04:01:28;;;;;;;61.03;5.30;;;;;;;;;;5073416;28;20454;-68
2022/08/24 04:03:55;;;;;;;60.63;4.80;;;;;;;;;;5073387;28;20469;-67
2022/08/24 04:06:23;;;;;;;65.17;5.33;;;;;;;;;;5073317;28;20451;-68
2022/08/24 04:08:51;;;;;;;61.30;5.80;;;;;;;;;;5072867;28;20451;-67
2022/08/24 04:11:20;;;;;;;62.37;5.40;;;;;;;;;;5072934;28;20451;-67
2022/08/24 04:13:48;;;;;;;63.97;5.37;;;;;;;;;;5073304;28;20443;-67
2022/08/24 04:16:18;;;;;;;61.00;4.70;;;;;;;;;;5073254;28;20813;-67
2022/08/24 04:18:46;;;;;;;62.67;5.63;;;;;;;;;;5072656;28;20575;-69
2022/08/24 04:21:18;;;;;;;60.47;4.73;;;;;;;;;;5072946;28;20451;-67
2022/08/24 04:23:45;;;;;;;60.80;5.37;;;;;;;;;;5072793;28;20509;-67
2022/08/24 04:26:12;;;;;;;59.80;4.70;;;;;;;;;;5072771;28;20459;-68
2022/08/24 04:28:39;;;;;;;59.30;3.83;;;;;;;;;;5072617;28;20477;-67
2022/08/24 04:31:07;;;;;;;61.67;6.37;;;;;;;;;;5072963;28;20821;-68
2022/08/24 04:33:35;;;;;;;60.90;4.90;;;;;;;;;;5072686;28;20563;-68
2022/08/24 04:36:03;;;;;;;60.57;5.07;;;;;;;;;;5072737;28;20490;-68
2022/08/24 04:38:30;;;;;;;60.00;4.63;;;;;;;;;;5071936;28;20832;-67
2022/08/24 04:40:57;;;;;;;62.63;5.83;;;;;;;;;;5072601;28;20458;-68
2022/08/24 04:43:25;;;;;;;62.60;6.37;;;;;;;;;;5072465;28;20467;-68
2022/08/24 04:45:52;;;;;;;60.63;4.90;;;;;;;;;;5072546;28;20821;-69
2022/08/24 04:48:19;;;;;;;60.47;5.03;;;;;;;;;;5072564;28;20450;-67
2022/08/24 04:50:48;;;;;;;62.00;5.43;;;;;;;;;;5072215;28;20493;-68
2022/08/24 04:53:16;;;;;;;60.57;5.27;;;;;;;;;;5072327;28;20475;-68
2022/08/24 04:55:44;;;;;;;60.50;4.90;;;;;;;;;;5072294;28;20447;-67
2022/08/24 04:58:11;;;;;;;60.10;4.43;;;;;;;;;;5072311;28;20483;-67
2022/08/24 05:00:39;;;;;;;60.40;5.27;;;;;;;;;;5072169;28;20443;-67
2022/08/24 05:03:06;;;;;;;60.10;4.70;;;;;;;;;;5072193;28;20906;-67
2022/08/24 05:05:34;;;;;;;59.80;4.50;;;;;;;;;;5072108;28;20450;-67
2022/08/24 05:08:03;;;;;;;60.57;5.47;;;;;;;;;;5072004;28;20451;-68
2022/08/24 05:10:30;;;;;;;62.10;6.50;;;;;;;;;;5071714;28;20447;-66
2022/08/24 05:12:57;;;;;;;61.97;4.40;;;;;;;;;;5072101;28;20493;-67
2022/08/24 05:15:24;;;;;;;61.23;5.20;;;;;;;;;;5072092;28;20451;-67
2022/08/24 05:17:51;;;;;;;60.17;4.80;;;;;;;;;;5071809;28;20454;-67
2022/08/24 05:20:19;;;;;;;60.60;5.60;;;;;;;;;;5071898;28;20477;-67
2022/08/24 05:22:46;;;;;;;61.50;5.30;;;;;;;;;;5072152;28;20495;-68
2022/08/24 05:25:14;;;;;;;60.50;5.47;;;;;;;;;;5072002;28;20454;-67
2022/08/24 05:27:41;;;;;;;60.73;4.90;;;;;;;;;;5071991;28;20447;-67
2022/08/24 05:30:09;;;;;;;60.57;4.57;;;;;;;;;;5071661;28;20448;-67
2022/08/24 05:32:36;;;;;;;60.50;4.90;;;;;;;;;;5071726;28;20872;-67
2022/08/24 05:35:04;;;;;;;60.10;4.67;;;;;;;;;;5071924;28;21045;-67
2022/08/24 05:37:31;;;;;;;60.57;4.90;;;;;;;;;;5071811;28;20534;-67
2022/08/24 05:39:58;;;;;;;60.30;4.50;;;;;;;;;;5071393;28;20485;-67
2022/08/24 05:42:27;;;;;;;59.87;4.40;;;;;;;;;;5071807;28;20474;-67
2022/08/24 05:44:54;;;;;;;60.07;4.63;;;;;;;;;;5071723;28;20816;-67
2022/08/24 05:47:21;;;;;;;59.60;3.83;;;;;;;;;;5071959;28;20508;-68
2022/08/24 05:49:51;;;;;;;60.73;4.80;;;;;;;;;;5073485;28;20447;-68
2022/08/24 05:52:19;;;;;;;59.60;4.40;;;;;;;;;;5075696;28;21003;-67
2022/08/24 05:54:46;;;;;;;60.40;4.67;;;;;;;;;;5075756;28;20444;-69
2022/08/24 05:57:14;;;;;;;60.37;4.77;;;;;;;;;;5075765;28;20812;-68
2022/08/24 05:59:43;;;;;;;60.27;5.63;;;;;;;;;;5075480;28;20505;-68
2022/08/24 06:02:10;;;;;;;59.70;4.30;;;;;;;;;;5075560;28;20474;-67
2022/08/24 06:04:37;;;;;;;59.93;4.20;;;;;;;;;;5075677;28;20447;-67
2022/08/24 06:07:05;;;;;;;59.80;4.03;;;;;;;;;;5075788;28;20453;-67
2022/08/24 06:09:32;;;;;;;59.47;4.17;;;;;;;;;;5075281;28;20447;-68
2022/08/24 06:11:59;;;;;;;60.30;4.23;;;;;;;;;;5075267;28;20467;-68
2022/08/24 06:14:26;;;;;;;59.60;4.10;;;;;;;;;;5075622;28;20455;-68
2022/08/24 06:16:55;;;;;;;61.17;4.00;;;;;;;;;;5075309;28;20582;-67
2022/08/24 06:19:25;;;;;;;62.37;3.80;;;;;;;;;;5074997;28;20490;-68
2022/08/24 06:21:53;;;;;;;60.60;4.43;;;;;;;;;;5075267;28;20473;-67
2022/08/24 06:27:19;;;;;;;59.67;4.50;;;;;;;;;;5075028;28;20454;-67
2022/08/24 06:27:24;;;;;;;59.60;4.10;;;;;;;;;;5075187;28;20471;-68
2022/08/24 06:29:52;;;;;;;59.50;3.80;;;;;;;;;;5074912;28;20823;-68
2022/08/24 06:32:20;;;;;;;60.80;4.27;;;;;;;;;;5074939;28;20484;-67
2022/08/24 06:34:47;;;;;;;60.63;4.60;;;;;;;;;;5075223;28;20457;-68
2022/08/24 06:37:15;;;;;;;59.27;4.00;;;;;;;;;;5075286;28;20568;-67
2022/08/24 06:39:42;;;;;;;62.10;3.90;;;;;;;;;;5074769;28;20524;-66
2022/08/24 06:42:09;;;;;;;59.93;4.07;;;;;;;;;;5074798;28;20989;-65
2022/08/24 06:44:36;;;;;;;58.90;3.37;;;;;;;;;;5074808;28;20508;-66
2022/08/24 06:47:04;;;;;;;61.87;5.03;;;;;;;;;;5074978;28;20455;-67
2022/08/24 06:49:32;;;;;;;59.27;3.93;;;;;;;;;;5074245;28;20446;-66
2022/08/24 06:51:59;;;;;;;58.97;3.80;;;;;;;;;;5074734;28;20461;-67
2022/08/24 06:54:26;;;;;;;59.33;4.00;;;;;;;;;;5074595;28;20461;-66
2022/08/24 06:56:55;;;;;;;60.57;4.10;;;;;;;;;;5074857;28;20443;-67
2022/08/24 06:59:22;;;;;;;59.57;4.10;;;;;;;;;;5074194;28;20482;-67
2022/08/24 07:01:49;;;;;;;59.03;3.87;;;;;;;;;;5074129;28;20465;-67
2022/08/24 07:04:17;;;;;;;59.20;3.53;;;;;;;;;;5074457;28;20826;-67
2022/08/24 07:06:46;;;;;;;59.43;3.83;;;;;;;;;;5074731;28;20539;-67
2022/08/24 07:09:13;;;;;;;59.10;3.50;;;;;;;;;;5074055;28;20538;-66
2022/08/24 07:11:40;;;;;;;59.60;4.03;;;;;;;;;;5074666;28;20463;-67
2022/08/24 07:14:07;;;;;;;58.70;3.80;;;;;;;;;;5074882;28;20455;-66
2022/08/24 07:16:35;;;;;;;59.00;3.60;;;;;;;;;;5074899;28;20472;-67
2022/08/24 07:19:02;;;;;;;59.73;3.63;;;;;;;;;;5074384;28;21028;-67
2022/08/24 07:21:31;;;;;;;58.90;3.50;;;;;;;;;;5074932;28;20534;-66
2022/08/24 07:24:01;;;;;;;58.87;3.70;;;;;;;;;;5074880;28;20452;-67
2022/08/24 07:26:30;;;;;;;58.57;3.30;;;;;;;;;;5075919;28;20455;-66
2022/08/24 07:29:03;;;;;;;59.83;3.87;;;;;;;;;;5074278;28;20444;-67
2022/08/24 07:31:31;;;;;;;59.57;3.93;;;;;;;;;;5075001;28;20447;-67
2022/08/24 07:33:58;;;;;;;58.53;2.83;;;;;;;;;;5074215;28;20459;-66
2022/08/24 07:36:25;;;;;;;58.97;3.50;;;;;;;;;;5074993;28;20451;-67
2022/08/24 07:38:52;;;;;;;58.67;3.90;;;;;;;;;;5073643;28;20487;-67
2022/08/24 07:41:21;;;;;;;58.33;3.10;;;;;;;;;;5075556;28;20702;-67
2022/08/24 07:43:49;;;;;;;58.87;3.17;;;;;;;;;;5073962;28;20451;-66
2022/08/24 07:46:16;;;;;;;58.60;3.00;;;;;;;;;;5074825;28;20451;-67
2022/08/24 07:48:43;;;;;;;59.10;3.30;;;;;;;;;;5074853;28;20822;-67
2022/08/24 07:51:11;;;;;;;58.50;3.23;;;;;;;;;;5076592;28;20490;-67
2022/08/24 07:53:38;;;;;;;58.60;2.80;;;;;;;;;;5074009;28;20467;-67
2022/08/24 07:56:06;;;;;;;58.87;3.23;;;;;;;;;;5074869;28;20455;-67
2022/08/24 07:58:35;;;;;;;58.87;3.67;;;;;;;;;;5077515;28;20562;-67
2022/08/24 08:01:03;;;;;;;60.60;3.20;;;;;;;;;;5075034;28;20479;-66
2022/08/24 08:03:32;;;;;;;58.37;3.30;;;;;;;;;;5073629;28;20467;-67
2022/08/24 08:05:59;;;;;;;59.30;3.93;;;;;;;;;;5074207;28;20505;-67
2022/08/24 08:08:27;;;;;;;58.80;3.43;;;;;;;;;;5073529;28;20820;-66
2022/08/24 08:10:55;;;;;;;61.80;3.77;;;;;;;;;;5073269;28;20531;-66
2022/08/24 08:13:22;;;;;;;58.50;3.10;;;;;;;;;;5072573;28;20464;-67
2022/08/24 08:15:50;;;;;;;58.40;3.27;;;;;;;;;;5074772;28;20828;-67
2022/08/24 08:18:19;;;;;;;58.07;3.10;;;;;;;;;;5075627;28;20534;-67
2022/08/24 08:20:47;;;;;;;58.37;3.03;;;;;;;;;;5073087;28;20487;-67
2022/08/24 08:26:00;;;;;;;58.60;3.03;;;;;;;;;;5073903;28;20461;-67
2022/08/24 08:28:31;;;;;;;58.67;3.40;;;;;;;;;;5076187;28;20489;-66
2022/08/24 08:31:00;;;;;;;58.50;2.90;;;;;;;;;;5073752;28;20443;-67
2022/08/24 08:33:27;;;;;;;58.93;3.40;;;;;;;;;;5073606;28;21023;-67
2022/08/24 08:35:58;;;;;;;57.87;2.90;;;;;;;;;;5073518;28;20451;-68
2022/08/24 08:38:25;;;;;;;57.67;2.60;;;;;;;;;;5075519;28;20542;-67
2022/08/24 08:40:59;;;;;;;59.17;3.10;;;;;;;;;;5075214;28;20566;-68
2022/08/24 08:43:35;;;;;;;58.50;2.93;;;;;;;;;;5075293;28;20467;-68
2022/08/24 08:46:13;;;;;;;58.10;2.80;;;;;;;;;;5075188;28;20563;-67
2022/08/24 08:48:59;;;;;;;62.93;3.07;;;;;;;;;;5074996;28;20538;-67
2022/08/24 08:51:37;;;;;;;58.80;2.63;;;;;;;;;;5075142;28;20955;-67
2022/08/24 08:54:12;;;;;;;63.10;3.40;;;;;;;;;;5076784;28;20447;-67
2022/08/24 08:56:43;;;;;;;57.57;2.70;;;;;;;;;;5074845;28;20454;-67
2022/08/24 08:59:15;;;;;;;58.37;2.90;;;;;;;;;;5074305;28;20936;-67
2022/08/24 09:01:48;;;;;;;57.77;2.80;;;;;;;;;;5075112;28;20479;-67
2022/08/24 09:04:25;;;;;;;57.87;2.40;;;;;;;;;;5074531;28;20458;-68
2022/08/24 09:07:02;;;;;;;58.00;2.40;;;;;;;;;;5075449;28;20443;-67
2022/08/24 09:09:37;;;;;;;58.43;3.10;;;;;;;;;;5075038;28;21023;-67
2022/08/24 09:12:13;;;;;;;58.90;3.30;;;;;;;;;;5075168;28;20462;-68
2022/08/24 09:14:57;;;;;;;57.57;2.70;;;;;;;;;;5075349;28;20891;-68
2022/08/24 09:17:33;;;;;;;58.17;2.97;;;;;;;;;;5073882;28;20543;-68
2022/08/24 09:20:09;;;;;;;58.60;3.07;;;;;;;;;;5072448;28;20482;-68
2022/08/24 09:22:38;;;;;;;58.10;2.53;;;;;;;;;;5074717;28;20493;-67
2022/08/24 09:25:15;;;;;;;58.17;2.80;;;;;;;;;;5074364;28;20457;-68
2022/08/24 09:27:47;;;;;;;59.57;2.63;;;;;;;;;;5074382;28;20651;-68
2022/08/24 09:30:17;;;;;;;58.00;2.63;;;;;;;;;;5073801;28;20451;-68
2022/08/24 09:32:59;;;;;;;58.00;2.70;;;;;;;;;;5072901;28;20480;-67
2022/08/24 09:35:42;;;;;;;57.77;2.43;;;;;;;;;;5072301;28;20835;-68
2022/08/24 09:38:17;;;;;;;58.10;2.90;;;;;;;;;;5072586;28;20451;-68
2022/08/24 09:40:52;;;;;;;58.07;2.73;;;;;;;;;;5071860;28;21002;-68
2022/08/24 09:43:35;;;;;;;58.20;2.60;;;;;;;;;;5072327;28;20564;-68
2022/08/24 09:46:10;;;;;;;59.47;2.57;;;;;;;;;;5072508;28;20451;-68
2022/08/24 09:48:55;;;;;;;59.67;3.00;;;;;;;;;;5071320;28;20447;-68
2022/08/24 09:51:41;;;;;;;58.13;2.70;;;;;;;;;;5071751;28;20436;-69
2022/08/24 09:54:27;;;;;;;58.70;2.87;;;;;;;;;;5071845;28;20935;-68
2022/08/24 09:57:03;;;;;;;57.67;2.43;;;;;;;;;;5071777;28;20439;-68
2022/08/24 09:59:41;;;;;;;57.90;2.40;;;;;;;;;;5071802;28;20449;-69
2022/08/24 10:02:15;;;;;;;57.97;2.60;;;;;;;;;;5071785;28;20475;-69
2022/08/24 10:04:48;;;;;;;58.30;2.43;;;;;;;;;;5071821;28;20846;-68
2022/08/24 10:07:18;;;;;;;57.67;2.20;;;;;;;;;;5072610;28;20966;-68
2022/08/24 10:10:03;;;;;;;57.47;2.23;;;;;;;;;;5074239;28;20427;-67
2022/08/24 10:12:42;;;;;;;57.43;2.07;;;;;;;;;;5074868;28;21014;-67
2022/08/24 10:15:10;;;;;;;57.60;2.63;;;;;;;;;;5075786;28;20452;-68
2022/08/24 10:17:43;;;;;;;58.37;2.77;;;;;;;;;;5075629;28;20447;-67
2022/08/24 10:20:17;;;;;;;57.17;2.40;;;;;;;;;;5073826;28;20967;-67
2022/08/24 10:22:57;;;;;;;56.90;2.23;;;;;;;;;;5072806;28;20938;-68
2022/08/24 10:25:30;;;;;;;57.07;2.10;;;;;;;;;;5073213;28;20482;-67
2022/08/24 10:28:03;;;;;;;56.43;2.10;;;;;;;;;;5071857;28;20455;-67
2022/08/24 10:30:49;;;;;;;56.50;1.97;;;;;;;;;;5071228;28;20435;-68
2022/08/24 10:33:20;;;;;;;56.57;2.03;;;;;;;;;;5071140;28;21090;-68
2022/08/24 10:36:05;;;;;;;56.50;2.03;;;;;;;;;;5073093;28;20454;-68
2022/08/24 10:41:31;;;;;;;56.53;2.00;;;;;;;;;;5077595;28;20536;-68
2022/08/24 10:44:07;;;;;;;57.00;2.00;;;;;;;;;;5075114;28;20451;-69
2022/08/24 10:46:44;;;;;;;56.77;2.20;;;;;;;;;;5075555;28;20443;-68
2022/08/24 10:49:31;;;;;;;56.80;2.10;;;;;;;;;;5074310;28;20478;-67
2022/08/24 10:52:10;;;;;;;56.47;1.90;;;;;;;;;;5075035;28;20498;-68
2022/08/24 10:54:37;;;;;;;56.27;2.00;;;;;;;;;;5075352;28;20531;-68
2022/08/24 10:57:06;;;;;;;56.07;1.90;;;;;;;;;;5075633;28;20447;-67
2022/08/24 10:59:42;;;;;;;57.00;2.20;;;;;;;;;;5075115;28;20443;-68
2022/08/24 11:02:10;;;;;;;56.07;1.90;;;;;;;;;;5078100;28;20474;-67
2022/08/24 11:04:38;;;;;;;56.50;2.10;;;;;;;;;;5078537;28;20447;-67
2022/08/24 11:07:08;;;;;;;56.50;1.90;;;;;;;;;;5079881;28;20513;-69
2022/08/24 11:09:47;;;;;;;56.20;1.90;;;;;;;;;;5075832;28;20466;-69
2022/08/24 11:12:22;;;;;;;56.10;1.87;;;;;;;;;;5074621;28;20689;-68
2022/08/24 11:14:51;;;;;;;56.67;2.03;;;;;;;;;;5074464;28;20504;-68
2022/08/24 11:17:19;;;;;;;56.90;2.63;;;;;;;;;;5075181;28;20447;-68
2022/08/24 11:19:47;;;;;;;56.30;2.10;;;;;;;;;;5074217;28;20860;-68
2022/08/24 11:22:27;;;;;;;56.00;2.00;;;;;;;;;;5075564;28;20471;-68
2022/08/24 11:24:57;;;;;;;56.40;1.93;;;;;;;;;;5074534;28;20451;-68
2022/08/24 11:27:29;;;;;;;56.33;2.10;;;;;;;;;;5074546;28;20478;-67
2022/08/24 11:30:02;;;;;;;57.13;2.03;;;;;;;;;;5073838;28;20462;-67
2022/08/24 11:32:31;;;;;;;56.60;2.30;;;;;;;;;;5073974;28;20483;-66
2022/08/24 11:35:01;;;;;;;57.00;2.00;;;;;;;;;;5074092;28;20443;-68
2022/08/24 11:37:32;;;;;;;56.37;2.17;;;;;;;;;;5074214;28;20932;-67
2022/08/24 11:39:59;;;;;;;56.77;2.20;;;;;;;;;;5073774;28;20450;-67
2022/08/24 11:42:34;;;;;;;57.10;2.10;;;;;;;;;;5073801;28;20471;-67
2022/08/24 11:45:05;;;;;;;56.47;2.00;;;;;;;;;;5073880;28;20534;-67
2022/08/24 11:47:38;;;;;;;56.50;2.00;;;;;;;;;;5073436;28;21012;-67
2022/08/24 11:50:10;;;;;;;57.40;2.27;;;;;;;;;;5073514;28;20508;-66
2022/08/24 11:52:44;;;;;;;56.73;2.33;;;;;;;;;;5073711;28;20471;-67
2022/08/24 11:55:13;;;;;;;56.87;2.17;;;;;;;;;;5073593;28;20447;-67
2022/08/24 11:57:44;;;;;;;57.40;2.23;;;;;;;;;;5073358;28;20450;-66
2022/08/24 12:00:15;;;;;;;56.60;2.20;;;;;;;;;;5073049;28;20990;-68
2022/08/24 12:02:43;;;;;;;56.37;2.00;;;;;;;;;;5073641;28;20819;-67
2022/08/24 12:05:13;;;;;;;56.40;2.13;;;;;;;;;;5073434;28;20447;-67
2022/08/24 12:07:50;;;;;;;56.40;2.00;;;;;;;;;;5073417;28;21002;-67
2022/08/24 12:10:20;;;;;;;56.17;1.93;;;;;;;;;;5072798;28;20446;-68
2022/08/24 12:12:52;;;;;;;56.60;2.10;;;;;;;;;;5073601;28;20503;-67
2022/08/24 12:15:23;;;;;;;57.57;2.20;;;;;;;;;;5073753;28;20443;-67
2022/08/24 12:17:53;;;;;;;56.37;1.83;;;;;;;;;;5073465;28;20451;-67
2022/08/24 12:20:26;;;;;;;56.67;1.90;;;;;;;;;;5072948;28;20486;-66
2022/08/24 12:22:54;;;;;;;56.47;2.10;;;;;;;;;;5072964;28;20503;-67
2022/08/24 12:28:07;;;;;;;56.70;2.30;;;;;;;;;;5072928;28;20422;-67
2022/08/24 12:30:37;;;;;;;56.87;2.40;;;;;;;;;;5072765;28;20823;-67
2022/08/24 12:33:06;;;;;;;56.47;1.90;;;;;;;;;;5072720;28;20489;-67
2022/08/24 12:35:37;;;;;;;56.30;1.90;;;;;;;;;;5073015;28;20935;-67
2022/08/24 12:38:08;;;;;;;56.70;2.00;;;;;;;;;;5073267;28;20443;-66
2022/08/24 12:40:38;;;;;;;56.23;1.87;;;;;;;;;;5072722;28;20506;-66
2022/08/24 12:43:08;;;;;;;56.57;2.10;;;;;;;;;;5072624;28;20467;-67
2022/08/24 12:45:36;;;;;;;56.77;2.20;;;;;;;;;;5073416;28;20451;-67
2022/08/24 12:48:08;;;;;;;56.57;2.10;;;;;;;;;;5073897;28;20454;-68
2022/08/24 12:50:39;;;;;;;56.33;1.80;;;;;;;;;;5073831;28;20935;-66
2022/08/24 12:53:24;;;;;;;56.80;2.07;;;;;;;;;;5074384;28;20559;-67
2022/08/24 12:55:58;;;;;;;56.80;2.10;;;;;;;;;;5073961;28;20449;-67
2022/08/24 12:58:42;;;;;;;56.87;2.40;;;;;;;;;;5072154;28;20448;-67
2022/08/24 13:01:12;;;;;;;56.90;2.23;;;;;;;;;;5062609;28;20489;-67
2022/08/24 13:03:40;;;;;;;56.50;1.80;;;;;;;;;;5072397;28;20467;-68
2022/08/24 13:06:09;;;;;;;56.60;2.00;;;;;;;;;;5072871;28;20960;-68
2022/08/24 13:08:37;;;;;;;57.30;2.30;;;;;;;;;;5072341;28;20474;-67
2022/08/24 13:11:06;;;;;;;56.83;2.20;;;;;;;;;;5073865;28;20807;-68
2022/08/24 13:13:44;;;;;;;57.40;1.90;;;;;;;;;;5073946;28;20552;-68
2022/08/24 13:16:32;;;;;;;56.80;2.00;;;;;;;;;;5072568;28;20486;-68
2022/08/24 13:19:14;;;;;;;57.07;2.00;;;;;;;;;;5073266;28;20455;-68
2022/08/24 13:21:44;;;;;;;56.77;2.07;;;;;;;;;;5073920;28;21155;-68
2022/08/24 13:24:29;;;;;;;57.30;2.33;;;;;;;;;;5073530;28;20510;-69
2022/08/24 13:26:57;;;;;;;56.60;2.30;;;;;;;;;;5073419;28;20443;-69
2022/08/24 13:29:26;;;;;;;57.30;2.30;;;;;;;;;;5074647;28;20900;-69
2022/08/24 13:31:58;;;;;;;56.90;2.20;;;;;;;;;;5075116;28;20456;-69
2022/08/24 13:34:39;;;;;;;56.97;2.10;;;;;;;;;;5074960;28;20963;-66
2022/08/24 13:37:14;;;;;;;57.07;2.20;;;;;;;;;;5075687;28;20443;-66
2022/08/24 13:39:58;;;;;;;56.93;2.20;;;;;;;;;;5075945;28;20553;-66
2022/08/24 13:42:43;;;;;;;57.20;2.30;;;;;;;;;;5076519;28;20569;-66
2022/08/24 13:45:17;;;;;;;57.00;2.00;;;;;;;;;;5066872;28;20534;-65
2022/08/24 13:48:01;;;;;;;56.80;2.10;;;;;;;;;;5075623;28;20455;-66
2022/08/24 13:50:31;;;;;;;57.17;2.13;;;;;;;;;;5074798;28;20980;-69
2022/08/24 13:53:04;;;;;;;57.10;2.10;;;;;;;;;;5076637;28;20535;-69
2022/08/24 13:55:34;;;;;;;57.00;2.17;;;;;;;;;;5076635;28;20448;-68
2022/08/24 13:58:10;;;;;;;57.20;2.43;;;;;;;;;;5076531;28;20868;-68
2022/08/24 14:00:40;;;;;;;57.33;2.63;;;;;;;;;;5075932;28;20435;-69
2022/08/24 14:03:20;;;;;;;57.10;2.13;;;;;;;;;;5075647;28;20467;-68
2022/08/24 14:05:50;;;;;;;60.73;2.47;;;;;;;;;;5076031;28;20874;-66
2022/08/24 14:08:32;;;;;;;57.47;2.30;;;;;;;;;;5076223;28;20517;-66
2022/08/24 14:11:03;;;;;;;57.20;2.50;;;;;;;;;;5076077;28;20538;-66
2022/08/24 14:13:36;;;;;;;57.00;2.03;;;;;;;;;;5080213;28;20463;-66
2022/08/24 14:19:07;;;;;;;56.70;2.23;;;;;;;;;;5080080;28;20958;-68
2022/08/24 14:21:37;;;;;;;56.97;2.43;;;;;;;;;;5079403;28;20558;-67
2022/08/24 14:24:05;;;;;;;56.87;2.20;;;;;;;;;;5077833;28;20451;-68
2022/08/24 14:26:51;;;;;;;56.80;2.17;;;;;;;;;;5079404;28;20443;-67
2022/08/24 14:29:36;;;;;;;57.00;2.27;;;;;;;;;;5078683;28;20443;-67
2022/08/24 14:32:34;;;;;;;57.13;2.30;;;;;;;;;;5078734;28;20475;-68
2022/08/24 14:35:16;;;;;;;56.80;2.20;;;;;;;;;;5080145;28;20463;-68
2022/08/24 14:37:50;;;;;;;57.20;2.40;;;;;;;;;;5079488;28;20447;-68
2022/08/24 14:40:23;;;;;;;57.10;2.50;;;;;;;;;;5079939;28;20523;-67
2022/08/24 14:42:55;;;;;;;56.57;1.80;;;;;;;;;;5079602;28;20494;-68
2022/08/24 14:45:24;;;;;;;56.67;2.03;;;;;;;;;;5079395;28;20535;-68
2022/08/24 14:48:00;;;;;;;56.90;2.20;;;;;;;;;;5080427;28;20538;-68
2022/08/24 14:50:32;;;;;;;57.00;2.30;;;;;;;;;;5078880;28;20966;-67
2022/08/24 14:53:05;;;;;;;56.90;2.33;;;;;;;;;;5078359;28;20471;-68
2022/08/24 14:55:37;;;;;;;56.70;2.20;;;;;;;;;;5078150;28;20489;-68
2022/08/24 14:58:11;;;;;;;59.90;2.80;;;;;;;;;;5078388;28;20458;-67
2022/08/24 15:00:52;;;;;;;56.87;2.23;;;;;;;;;;5078134;28;20446;-67
2022/08/24 15:03:38;;;;;;;58.27;2.57;;;;;;;;;;5078648;28;20862;-68